Time;durP1;ratioP1;P1;durP2;ratioP2;P2;SDS_P1;SDS_P2;PMS_P1;PMS_P2;Temp;Humidity;BMP_temperature;BMP_pressure;BME280_temperature;BME280_humidity;BME280_pressure;Samples;Min_cycle;Max_cycle;Signal;HPM_P1;HPM_P2
2022/05/29 00:01:15;;;;;;;12.52;2.80;;;;;;;;;;5042838;28;20783;-72
2022/05/29 00:03:45;;;;;;;9.98;3.00;;;;;;;;;;5058036;28;20036;-71
2022/05/29 00:06:14;;;;;;;9.25;2.60;;;;;;;;;;5003903;28;20135;-72
2022/05/29 00:08:43;;;;;;;10.90;2.75;;;;;;;;;;5042424;28;20033;-72
2022/05/29 00:11:13;;;;;;;10.70;2.45;;;;;;;;;;5060967;28;20036;-71
2022/05/29 00:13:41;;;;;;;7.50;2.20;;;;;;;;;;5028917;28;20033;-72
2022/05/29 00:16:13;;;;;;;8.95;2.13;;;;;;;;;;5059012;28;20047;-71
2022/05/29 00:18:42;;;;;;;8.32;2.00;;;;;;;;;;5062900;28;21289;-71
2022/05/29 00:21:10;;;;;;;9.88;1.90;;;;;;;;;;5062924;28;20118;-71
2022/05/29 00:23:42;;;;;;;8.82;1.85;;;;;;;;;;5060216;28;20052;-71
2022/05/29 00:26:09;;;;;;;7.35;1.70;;;;;;;;;;5054596;28;20035;-72
2022/05/29 00:28:41;;;;;;;8.05;1.92;;;;;;;;;;5064107;28;20707;-71
2022/05/29 00:31:09;;;;;;;10.23;3.00;;;;;;;;;;5044570;28;20150;-71
2022/05/29 00:33:42;;;;;;;9.80;2.38;;;;;;;;;;5041153;28;20322;-71
2022/05/29 00:36:11;;;;;;;9.65;2.25;;;;;;;;;;5048055;28;20441;-71
2022/05/29 00:38:40;;;;;;;9.82;1.70;;;;;;;;;;5041711;28;20019;-71
2022/05/29 00:41:22;;;;;;;8.90;2.30;;;;;;;;;;5058318;28;20470;-71
2022/05/29 00:44:07;;;;;;;6.30;1.80;;;;;;;;;;5042693;28;20341;-71
2022/05/29 00:46:36;;;;;;;10.13;3.03;;;;;;;;;;5052660;28;20070;-71
2022/05/29 00:49:12;;;;;;;8.98;2.28;;;;;;;;;;5067253;28;20031;-71
2022/05/29 00:51:42;;;;;;;7.82;2.10;;;;;;;;;;5042001;28;20526;-71
2022/05/29 00:54:08;;;;;;;7.13;2.13;;;;;;;;;;5044222;28;20092;-71
2022/05/29 00:56:39;;;;;;;12.25;2.50;;;;;;;;;;5061167;28;20036;-71
2022/05/29 00:59:10;;;;;;;9.10;2.15;;;;;;;;;;5029820;28;20486;-71
2022/05/29 01:01:38;;;;;;;8.85;2.13;;;;;;;;;;5036875;28;20036;-71
2022/05/29 01:04:07;;;;;;;9.27;2.67;;;;;;;;;;5058733;28;20039;-72
2022/05/29 01:06:39;;;;;;;11.05;2.90;;;;;;;;;;5065111;28;20043;-71
2022/05/29 01:09:06;;;;;;;10.30;2.92;;;;;;;;;;4993467;28;20040;-71
2022/05/29 01:11:48;;;;;;;11.10;3.00;;;;;;;;;;5023133;28;20121;-71
2022/05/29 01:14:35;;;;;;;8.43;2.20;;;;;;;;;;5056733;28;20308;-71
2022/05/29 01:17:07;;;;;;;10.43;2.78;;;;;;;;;;5044983;28;20032;-71
2022/05/29 01:19:36;;;;;;;8.65;2.63;;;;;;;;;;5064079;28;20492;-72
2022/05/29 01:22:22;;;;;;;9.63;2.70;;;;;;;;;;5064391;28;20607;-71
2022/05/29 01:24:58;;;;;;;8.93;2.90;;;;;;;;;;5040936;28;20035;-71
2022/05/29 01:27:45;;;;;;;10.30;3.03;;;;;;;;;;5054049;28;20093;-71
2022/05/29 01:30:21;;;;;;;8.43;2.33;;;;;;;;;;5041685;28;20440;-72
2022/05/29 01:33:08;;;;;;;7.78;1.98;;;;;;;;;;5049009;28;20214;-71
2022/05/29 01:35:45;;;;;;;9.57;2.40;;;;;;;;;;5062082;28;20035;-71
2022/05/29 01:38:15;;;;;;;8.55;2.55;;;;;;;;;;5021508;28;20047;-72
2022/05/29 01:40:48;;;;;;;8.82;2.63;;;;;;;;;;5066536;28;20447;-72
2022/05/29 01:43:20;;;;;;;9.65;2.10;;;;;;;;;;5057688;28;20428;-71
2022/05/29 01:45:53;;;;;;;8.65;2.38;;;;;;;;;;5061606;28;20147;-71
2022/05/29 01:48:42;;;;;;;8.40;2.30;;;;;;;;;;5057769;28;20047;-71
2022/05/29 01:51:16;;;;;;;8.23;2.58;;;;;;;;;;5046617;28;20216;-71
2022/05/29 01:53:48;;;;;;;8.85;2.70;;;;;;;;;;5028547;28;20032;-70
2022/05/29 01:56:28;;;;;;;8.65;2.30;;;;;;;;;;5038293;28;20028;-70
2022/05/29 01:59:09;;;;;;;8.25;2.50;;;;;;;;;;5042878;28;20025;-70
2022/05/29 02:01:41;;;;;;;8.43;2.10;;;;;;;;;;5042678;28;20034;-72
2022/05/29 02:04:11;;;;;;;9.38;2.70;;;;;;;;;;5043431;28;20028;-70
2022/05/29 02:09:34;;;;;;;10.35;2.40;;;;;;;;;;5063667;28;20043;-72
2022/05/29 02:12:03;;;;;;;10.43;2.38;;;;;;;;;;5063348;28;20043;-71
2022/05/29 02:14:46;;;;;;;11.15;2.20;;;;;;;;;;5048031;28;20024;-71
2022/05/29 02:17:15;;;;;;;9.25;2.30;;;;;;;;;;5063620;28;20386;-71
2022/05/29 02:19:57;;;;;;;7.53;1.95;;;;;;;;;;5066768;28;20305;-71
2022/05/29 02:22:29;;;;;;;7.50;2.22;;;;;;;;;;5061243;28;20088;-71
2022/05/29 02:25:01;;;;;;;9.40;2.75;;;;;;;;;;5046772;28;20023;-71
2022/05/29 02:27:45;;;;;;;9.50;2.75;;;;;;;;;;5063192;28;20134;-71
2022/05/29 02:30:14;;;;;;;8.48;2.30;;;;;;;;;;5043094;28;20485;-71
2022/05/29 02:32:50;;;;;;;7.22;2.33;;;;;;;;;;5068394;28;20541;-71
2022/05/29 02:35:31;;;;;;;9.70;2.33;;;;;;;;;;5063134;28;20535;-71
2022/05/29 02:37:59;;;;;;;10.07;2.30;;;;;;;;;;5067432;28;20027;-71
2022/05/29 02:40:29;;;;;;;9.23;2.25;;;;;;;;;;5066082;28;20484;-71
2022/05/29 02:43:14;;;;;;;8.73;2.20;;;;;;;;;;5063346;28;20047;-71
2022/05/29 02:45:56;;;;;;;7.22;2.05;;;;;;;;;;5064549;28;20042;-71
2022/05/29 02:48:41;;;;;;;9.57;1.92;;;;;;;;;;5027559;28;20055;-71
2022/05/29 02:51:14;;;;;;;9.70;1.88;;;;;;;;;;5065273;28;20050;-71
2022/05/29 02:53:47;;;;;;;11.90;2.15;;;;;;;;;;5066783;28;20043;-71
2022/05/29 02:56:15;;;;;;;10.65;2.28;;;;;;;;;;5037777;28;20114;-71
2022/05/29 02:58:48;;;;;;;8.10;2.42;;;;;;;;;;5039630;28;20456;-71
2022/05/29 03:01:33;;;;;;;11.70;2.53;;;;;;;;;;5049052;28;21062;-71
2022/05/29 03:04:18;;;;;;;8.48;1.90;;;;;;;;;;5044538;28;20094;-71
2022/05/29 03:07:02;;;;;;;7.95;2.25;;;;;;;;;;5042495;28;20064;-70
2022/05/29 03:09:34;;;;;;;9.38;2.60;;;;;;;;;;5022586;28;20040;-72
2022/05/29 03:12:09;;;;;;;9.20;2.30;;;;;;;;;;5043919;28;20447;-70
2022/05/29 03:14:55;;;;;;;10.88;2.42;;;;;;;;;;5043174;28;20040;-71
2022/05/29 03:17:28;;;;;;;9.13;2.40;;;;;;;;;;5000875;28;20041;-71
2022/05/29 03:20:06;;;;;;;10.30;2.17;;;;;;;;;;5023083;28;20033;-71
2022/05/29 03:22:47;;;;;;;8.02;2.55;;;;;;;;;;5023544;28;20471;-71
2022/05/29 03:25:23;;;;;;;8.57;2.00;;;;;;;;;;5015525;28;20606;-71
2022/05/29 03:27:53;;;;;;;7.38;1.90;;;;;;;;;;5007683;28;20426;-71
2022/05/29 03:30:40;;;;;;;10.45;2.22;;;;;;;;;;5002623;28;20303;-71
2022/05/29 03:33:12;;;;;;;10.48;2.47;;;;;;;;;;5006794;28;20048;-71
2022/05/29 03:36:04;;;;;;;9.55;2.13;;;;;;;;;;5019393;28;20217;-70
2022/05/29 03:38:32;;;;;;;10.45;2.38;;;;;;;;;;5020250;28;20215;-71
2022/05/29 03:41:01;;;;;;;9.98;2.03;;;;;;;;;;5004842;28;20677;-71
2022/05/29 03:43:29;;;;;;;11.25;2.10;;;;;;;;;;5022426;28;20107;-71
2022/05/29 03:45:56;;;;;;;7.80;2.17;;;;;;;;;;5023142;28;20040;-71
2022/05/29 03:48:23;;;;;;;7.22;2.10;;;;;;;;;;5028232;28;20033;-71
2022/05/29 03:50:50;;;;;;;9.82;2.17;;;;;;;;;;5054457;28;20584;-71
2022/05/29 03:53:18;;;;;;;9.20;2.30;;;;;;;;;;5026889;28;20119;-71
2022/05/29 03:55:47;;;;;;;11.57;1.95;;;;;;;;;;5042148;28;20041;-71
2022/05/29 03:58:18;;;;;;;6.60;1.80;;;;;;;;;;5045989;28;20024;-70
2022/05/29 04:00:45;;;;;;;7.90;2.13;;;;;;;;;;5049125;28;20485;-71
2022/05/29 04:03:13;;;;;;;8.15;1.92;;;;;;;;;;5027202;28;20056;-71
2022/05/29 04:05:41;;;;;;;9.00;1.92;;;;;;;;;;5041179;28;20079;-71
2022/05/29 04:13:44;;;;;;;9.73;2.70;;;;;;;;;;5043129;28;20183;-71
2022/05/29 04:16:14;;;;;;;8.93;2.30;;;;;;;;;;5035152;28;20131;-70
2022/05/29 04:18:45;;;;;;;10.65;2.30;;;;;;;;;;5046267;28;20034;-70
2022/05/29 04:21:14;;;;;;;9.60;2.88;;;;;;;;;;5059322;28;20062;-70
2022/05/29 04:23:42;;;;;;;9.82;2.70;;;;;;;;;;5046826;28;20465;-70
2022/05/29 04:26:11;;;;;;;10.57;2.63;;;;;;;;;;5060088;28;20139;-71
2022/05/29 04:28:38;;;;;;;8.90;2.33;;;;;;;;;;5059751;28;20103;-70
2022/05/29 04:31:04;;;;;;;;;;;;;;;;;;5065955;28;20032;-72
2022/05/29 04:33:33;;;;;;;9.77;2.40;;;;;;;;;;5061503;28;19966;-72
2022/05/29 04:36:00;;;;;;;10.85;2.40;;;;;;;;;;5059447;28;20035;-72
2022/05/29 04:38:30;;;;;;;11.98;2.40;;;;;;;;;;5046815;28;20653;-69
2022/05/29 04:40:58;;;;;;;8.73;2.60;;;;;;;;;;5038751;28;20036;-70
2022/05/29 04:43:27;;;;;;;10.52;2.40;;;;;;;;;;5042483;28;20126;-71
2022/05/29 04:45:56;;;;;;;8.23;1.85;;;;;;;;;;5059414;28;20028;-71
2022/05/29 04:48:24;;;;;;;8.63;1.70;;;;;;;;;;5046579;28;20093;-71
2022/05/29 04:51:03;;;;;;;7.95;1.92;;;;;;;;;;5061682;28;20027;-71
2022/05/29 04:53:31;;;;;;;9.38;2.30;;;;;;;;;;5024479;28;20043;-71
2022/05/29 04:56:00;;;;;;;11.65;2.35;;;;;;;;;;5058554;28;20032;-71
2022/05/29 04:58:28;;;;;;;9.43;2.22;;;;;;;;;;5042172;28;21931;-71
2022/05/29 05:01:02;;;;;;;9.25;2.30;;;;;;;;;;5064961;28;20114;-70
2022/05/29 05:03:32;;;;;;;8.15;2.10;;;;;;;;;;5061947;28;20054;-71
2022/05/29 05:06:00;;;;;;;8.60;2.33;;;;;;;;;;5043559;28;20032;-70
2022/05/29 05:08:28;;;;;;;8.52;2.15;;;;;;;;;;5045852;28;21186;-70
2022/05/29 05:10:57;;;;;;;10.65;2.55;;;;;;;;;;5070793;28;20040;-70
2022/05/29 05:13:51;;;;;;;12.40;2.60;;;;;;;;;;5068602;28;20765;-70
2022/05/29 05:16:18;;;;;;;10.30;2.20;;;;;;;;;;5063584;28;20047;-72
2022/05/29 05:18:45;;;;;;;8.15;2.22;;;;;;;;;;5052900;28;20546;-70
2022/05/29 05:21:11;;;;;;;;;;;;;;;;;;5050478;28;20097;-72
2022/05/29 05:23:40;;;;;;;9.23;2.53;;;;;;;;;;5071377;28;20320;-72
2022/05/29 05:26:15;;;;;;;12.50;2.67;;;;;;;;;;5048557;28;20040;-72
2022/05/29 05:28:45;;;;;;;9.70;2.30;;;;;;;;;;5070568;28;20048;-70
2022/05/29 05:31:13;;;;;;;10.20;2.10;;;;;;;;;;5028686;28;20078;-70
2022/05/29 05:33:43;;;;;;;13.13;2.80;;;;;;;;;;5058738;28;20134;-69
2022/05/29 05:36:12;;;;;;;10.00;1.90;;;;;;;;;;5053019;28;20162;-69
2022/05/29 05:38:41;;;;;;;7.57;2.15;;;;;;;;;;5061312;28;20116;-70
2022/05/29 05:41:12;;;;;;;8.18;2.30;;;;;;;;;;5062298;28;20049;-70
2022/05/29 05:43:42;;;;;;;9.43;2.20;;;;;;;;;;5065188;28;20056;-70
2022/05/29 05:46:09;;;;;;;8.18;2.30;;;;;;;;;;5058971;28;21491;-70
2022/05/29 05:48:38;;;;;;;9.77;2.30;;;;;;;;;;5043585;28;20027;-70
2022/05/29 05:51:05;;;;;;;9.10;2.33;;;;;;;;;;5038954;28;20382;-69
2022/05/29 05:53:33;;;;;;;9.10;2.25;;;;;;;;;;5038781;28;20081;-70
2022/05/29 05:56:21;;;;;;;7.40;1.90;;;;;;;;;;5044249;28;20118;-71
2022/05/29 05:58:50;;;;;;;9.18;2.13;;;;;;;;;;5065443;28;20035;-70
2022/05/29 06:01:18;;;;;;;8.55;2.58;;;;;;;;;;5048365;28;20636;-70
2022/05/29 06:03:45;;;;;;;8.30;2.03;;;;;;;;;;5044201;28;20040;-71
2022/05/29 06:06:16;;;;;;;10.77;2.20;;;;;;;;;;5038815;28;20817;-70
2022/05/29 06:08:42;;;;;;;7.93;2.40;;;;;;;;;;5024128;28;20065;-70
2022/05/29 06:11:13;;;;;;;8.65;2.20;;;;;;;;;;5055690;28;20036;-71
2022/05/29 06:13:41;;;;;;;8.18;2.03;;;;;;;;;;5023684;28;20489;-70
2022/05/29 06:16:17;;;;;;;8.27;2.15;;;;;;;;;;5053098;28;20101;-70
2022/05/29 06:18:45;;;;;;;7.97;1.98;;;;;;;;;;5032331;28;20115;-70
2022/05/29 06:21:14;;;;;;;8.60;2.40;;;;;;;;;;5038914;28;20057;-70
2022/05/29 06:23:42;;;;;;;6.75;2.20;;;;;;;;;;5043484;28;20288;-70
2022/05/29 06:26:12;;;;;;;9.30;1.95;;;;;;;;;;5057929;28;20061;-72
2022/05/29 06:28:45;;;;;;;9.65;1.85;;;;;;;;;;5060167;28;20044;-70
2022/05/29 06:31:16;;;;;;;7.75;1.80;;;;;;;;;;5038754;28;20709;-71
2022/05/29 06:33:43;;;;;;;10.25;1.88;;;;;;;;;;5056592;28;20047;-72
2022/05/29 06:36:15;;;;;;;7.55;1.95;;;;;;;;;;5057337;28;20169;-71
2022/05/29 06:38:45;;;;;;;8.32;2.17;;;;;;;;;;5043148;28;21321;-71
2022/05/29 06:41:24;;;;;;;7.50;1.88;;;;;;;;;;5053328;28;20040;-71
2022/05/29 06:43:55;;;;;;;6.97;1.65;;;;;;;;;;5059248;28;20073;-70
2022/05/29 06:46:23;;;;;;;7.07;1.80;;;;;;;;;;5038102;28;20049;-70
2022/05/29 06:48:51;;;;;;;6.38;1.63;;;;;;;;;;5043791;28;20035;-70
2022/05/29 06:51:22;;;;;;;8.38;1.80;;;;;;;;;;5054843;28;20032;-70
2022/05/29 06:53:52;;;;;;;7.70;1.80;;;;;;;;;;5019997;28;20376;-70
2022/05/29 06:56:22;;;;;;;7.88;1.60;;;;;;;;;;4993699;28;20060;-70
2022/05/29 06:58:54;;;;;;;8.15;1.85;;;;;;;;;;5019019;28;20035;-70
2022/05/29 07:06:59;;;;;;;6.07;1.50;;;;;;;;;;5015226;28;20055;-70
2022/05/29 07:09:31;;;;;;;8.82;1.77;;;;;;;;;;5013956;28;20310;-70
2022/05/29 07:12:09;;;;;;;8.50;1.33;;;;;;;;;;5040010;28;20134;-70
2022/05/29 07:14:38;;;;;;;7.22;1.35;;;;;;;;;;5019060;28;20390;-71
2022/05/29 07:17:07;;;;;;;4.90;1.20;;;;;;;;;;5019082;28;20135;-70
2022/05/29 07:19:35;;;;;;;7.38;1.20;;;;;;;;;;5038989;28;20460;-70
2022/05/29 07:22:01;;;;;;;8.70;1.65;;;;;;;;;;5042333;28;20064;-70
2022/05/29 07:24:30;;;;;;;7.20;1.30;;;;;;;;;;5034071;28;20163;-70
2022/05/29 07:27:02;;;;;;;6.25;1.40;;;;;;;;;;5044928;28;20048;-70
2022/05/29 07:29:29;;;;;;;4.95;1.15;;;;;;;;;;5014653;28;20131;-72
2022/05/29 07:31:56;;;;;;;9.73;2.03;;;;;;;;;;5035268;28;20816;-70
2022/05/29 07:34:25;;;;;;;7.25;1.40;;;;;;;;;;5039580;28;20040;-70
2022/05/29 07:36:52;;;;;;;6.25;1.50;;;;;;;;;;5035503;28;20483;-70
2022/05/29 07:39:20;;;;;;;4.88;1.33;;;;;;;;;;5034962;28;20589;-70
2022/05/29 07:44:34;;;;;;;7.75;1.67;;;;;;;;;;5035120;28;20638;-70
2022/05/29 07:47:02;;;;;;;4.75;1.30;;;;;;;;;;5053487;28;20123;-71
2022/05/29 07:49:29;;;;;;;10.82;1.70;;;;;;;;;;5045599;28;20159;-72
2022/05/29 07:51:57;;;;;;;6.35;1.55;;;;;;;;;;5058694;28;20371;-72
2022/05/29 07:54:26;;;;;;;8.90;1.77;;;;;;;;;;5040762;28;20608;-71
2022/05/29 07:56:53;;;;;;;7.63;1.63;;;;;;;;;;5060965;28;20024;-71
2022/05/29 07:59:22;;;;;;;7.95;1.48;;;;;;;;;;5038108;28;20047;-71
2022/05/29 08:01:48;;;;;;;8.07;1.70;;;;;;;;;;5019876;28;20778;-71
2022/05/29 08:04:20;;;;;;;7.03;1.58;;;;;;;;;;5020597;28;20120;-72
2022/05/29 08:06:47;;;;;;;8.18;2.08;;;;;;;;;;5021367;28;20490;-72
2022/05/29 08:09:14;;;;;;;7.35;1.40;;;;;;;;;;5018688;28;20575;-71
2022/05/29 08:11:43;;;;;;;7.03;1.85;;;;;;;;;;5016372;28;20156;-71
2022/05/29 08:14:10;;;;;;;5.82;1.40;;;;;;;;;;5015030;28;20486;-71
2022/05/29 08:16:39;;;;;;;6.47;1.48;;;;;;;;;;5019199;28;20118;-71
2022/05/29 08:19:08;;;;;;;7.10;1.55;;;;;;;;;;5038983;28;20588;-71
2022/05/29 08:21:37;;;;;;;6.20;1.42;;;;;;;;;;5039499;28;20044;-66
2022/05/29 08:32:22;;;;;;;9.55;2.17;;;;;;;;;;5036725;28;20054;-66
2022/05/29 08:34:48;;;;;;;6.68;1.52;;;;;;;;;;5035487;28;20024;-66
2022/05/29 08:37:19;;;;;;;7.13;1.67;;;;;;;;;;5016358;28;20067;-72
2022/05/29 08:39:49;;;;;;;9.00;1.85;;;;;;;;;;5037863;28;20040;-71
2022/05/29 08:42:19;;;;;;;7.95;1.73;;;;;;;;;;5019394;28;20047;-71
2022/05/29 08:44:52;;;;;;;5.90;1.50;;;;;;;;;;5008003;28;20723;-71
2022/05/29 08:47:24;;;;;;;7.35;1.50;;;;;;;;;;5064108;28;20803;-71
2022/05/29 08:49:53;;;;;;;10.40;1.80;;;;;;;;;;5055772;28;20036;-74
2022/05/29 08:52:43;;;;;;;6.85;1.38;;;;;;;;;;5061050;28;20458;-69
2022/05/29 08:55:26;;;;;;;7.85;1.60;;;;;;;;;;5037085;28;20611;-71
2022/05/29 08:58:13;;;;;;;6.60;1.65;;;;;;;;;;5044231;28;20401;-70
2022/05/29 09:00:58;;;;;;;9.90;1.42;;;;;;;;;;5060447;28;20031;-70
2022/05/29 09:03:42;;;;;;;7.95;1.55;;;;;;;;;;5043102;28;20067;-69
2022/05/29 09:06:11;;;;;;;9.07;1.70;;;;;;;;;;5057447;28;20467;-70
2022/05/29 09:08:52;;;;;;;11.50;2.20;;;;;;;;;;5067847;28;20587;-70
2022/05/29 09:11:22;;;;;;;6.70;1.58;;;;;;;;;;5037851;28;20057;-70
2022/05/29 09:14:08;;;;;;;9.05;1.92;;;;;;;;;;5064918;28;20044;-70
2022/05/29 09:16:41;;;;;;;9.90;1.98;;;;;;;;;;5043813;28;20394;-71
2022/05/29 09:19:26;;;;;;;8.25;1.83;;;;;;;;;;5049611;28;20034;-69
2022/05/29 09:21:59;;;;;;;8.00;1.48;;;;;;;;;;5040095;28;20393;-69
2022/05/29 09:24:42;;;;;;;8.63;1.65;;;;;;;;;;5021462;28;20069;-70
2022/05/29 09:27:10;;;;;;;8.13;1.70;;;;;;;;;;5057108;28;20272;-70
2022/05/29 09:29:41;;;;;;;9.00;1.30;;;;;;;;;;5015899;28;20226;-70
2022/05/29 09:32:14;;;;;;;8.10;1.60;;;;;;;;;;5004044;28;20037;-69
2022/05/29 09:34:43;;;;;;;7.30;1.70;;;;;;;;;;5017598;28;20166;-70
2022/05/29 09:37:18;;;;;;;11.25;1.70;;;;;;;;;;4998633;28;20083;-69
2022/05/29 09:39:51;;;;;;;8.10;1.92;;;;;;;;;;5014305;28;20053;-70
2022/05/29 09:42:24;;;;;;;8.85;1.80;;;;;;;;;;5014276;28;20033;-71
2022/05/29 09:45:19;;;;;;;15.80;3.53;;;;;;;;;;5015637;28;20033;-70
2022/05/29 09:51:00;;;;;;;8.00;1.98;;;;;;;;;;5006577;28;20613;-70
2022/05/29 09:53:43;;;;;;;8.05;2.00;;;;;;;;;;4976081;28;21760;-71
2022/05/29 09:56:13;;;;;;;8.57;1.70;;;;;;;;;;4959465;28;20132;-71
2022/05/29 09:58:47;;;;;;;9.07;2.00;;;;;;;;;;4973797;28;20609;-69
2022/05/29 10:01:34;;;;;;;8.98;2.60;;;;;;;;;;4995524;28;20045;-76
2022/05/29 10:04:08;;;;;;;9.88;1.75;;;;;;;;;;4951672;28;20051;-76
2022/05/29 10:06:42;;;;;;;9.00;1.73;;;;;;;;;;4962084;28;20042;-78
2022/05/29 10:09:22;;;;;;;9.60;1.92;;;;;;;;;;4928455;28;20614;-77
2022/05/29 10:12:01;;;;;;;7.65;1.40;;;;;;;;;;4924443;28;20027;-77
2022/05/29 10:14:42;;;;;;;9.05;1.90;;;;;;;;;;4940018;28;21471;-77
2022/05/29 10:17:29;;;;;;;9.85;1.70;;;;;;;;;;4937899;28;20165;-75
2022/05/29 10:19:57;;;;;;;8.85;1.90;;;;;;;;;;4941473;28;20113;-78
2022/05/29 10:22:27;;;;;;;7.60;1.70;;;;;;;;;;4938693;28;20733;-77
2022/05/29 10:24:59;;;;;;;12.45;2.00;;;;;;;;;;4938875;28;20046;-77
2022/05/29 10:27:32;;;;;;;8.45;1.80;;;;;;;;;;4935587;28;20476;-78
2022/05/29 10:30:09;;;;;;;9.98;2.00;;;;;;;;;;4953415;28;20862;-78
2022/05/29 10:32:42;;;;;;;9.73;1.60;;;;;;;;;;4974149;28;20520;-77
2022/05/29 10:35:21;;;;;;;11.18;2.13;;;;;;;;;;4965996;28;20038;-77
2022/05/29 10:37:48;;;;;;;10.18;1.80;;;;;;;;;;4967094;28;20476;-76
2022/05/29 10:40:24;;;;;;;10.20;1.75;;;;;;;;;;4955179;28;20481;-76
2022/05/29 10:42:52;;;;;;;9.63;2.13;;;;;;;;;;4975596;28;20048;-77
2022/05/29 10:45:20;;;;;;;7.57;2.15;;;;;;;;;;4975633;28;20456;-78
2022/05/29 10:47:54;;;;;;;8.95;1.80;;;;;;;;;;5005249;28;20047;-79
2022/05/29 10:50:39;;;;;;;12.10;2.38;;;;;;;;;;5031994;28;20044;-77
2022/05/29 10:53:12;;;;;;;10.38;2.10;;;;;;;;;;5036229;28;20108;-75
2022/05/29 10:55:58;;;;;;;14.10;2.55;;;;;;;;;;5041859;28;20390;-75
2022/05/29 10:58:43;;;;;;;12.38;2.20;;;;;;;;;;5042319;28;20121;-73
2022/05/29 11:04:45;;;;;;;12.65;1.98;;;;;;;;;;5036445;28;20314;-73
2022/05/29 11:07:28;;;;;;;11.80;3.28;;;;;;;;;;4992447;28;20047;-71
2022/05/29 11:10:32;;;;;;;9.07;2.50;;;;;;;;;;5024085;28;20285;-72
2022/05/29 11:13:08;;;;;;;9.30;2.50;;;;;;;;;;4974152;28;20043;-72
2022/05/29 11:15:38;;;;;;;;;;;;;;;;;;4962439;28;20132;-71
2022/05/29 11:18:26;;;;;;;10.55;3.80;;;;;;;;;;4963384;28;19917;-71
2022/05/29 11:21:22;;;;;;;8.63;1.70;;;;;;;;;;4996313;28;20026;-71
2022/05/29 11:24:05;;;;;;;11.52;1.85;;;;;;;;;;4978816;28;20192;-71
2022/05/29 11:26:53;;;;;;;15.32;2.40;;;;;;;;;;4979650;28;20046;-72
2022/05/29 11:29:45;;;;;;;11.05;2.15;;;;;;;;;;4973496;28;20037;-71
2022/05/29 11:32:24;;;;;;;11.00;1.90;;;;;;;;;;4976334;28;20046;-72
2022/05/29 11:35:09;;;;;;;10.68;1.65;;;;;;;;;;4977782;28;20045;-73
2022/05/29 11:37:55;;;;;;;12.68;2.30;;;;;;;;;;4967373;28;20504;-72
2022/05/29 11:40:26;;;;;;;13.73;2.33;;;;;;;;;;4977700;28;20148;-68
2022/05/29 11:42:57;;;;;;;12.40;3.53;;;;;;;;;;4983600;28;20049;-70
2022/05/29 11:51:07;;;;;;;21.77;11.68;;;;;;;;;;4997314;28;20049;-70
2022/05/29 11:51:20;;;;;;;9.60;2.60;;;;;;;;;;5004112;28;20056;-70
2022/05/29 11:53:59;;;;;;;11.38;2.15;;;;;;;;;;4987037;28;20612;-68
2022/05/29 11:56:46;;;;;;;12.02;2.30;;;;;;;;;;4999996;28;20132;-70
2022/05/29 11:59:26;;;;;;;10.50;2.33;;;;;;;;;;4999910;28;20029;-70
2022/05/29 12:02:13;;;;;;;12.95;2.47;;;;;;;;;;5060646;28;20036;-69
2022/05/29 12:04:44;;;;;;;10.90;2.25;;;;;;;;;;5053053;28;20043;-69
2022/05/29 12:07:33;;;;;;;11.60;2.22;;;;;;;;;;5039356;28;20161;-69
2022/05/29 12:10:14;;;;;;;14.63;2.90;;;;;;;;;;5059011;28;20040;-67
2022/05/29 12:12:44;;;;;;;14.48;2.50;;;;;;;;;;5060229;28;20545;-69
2022/05/29 12:15:17;;;;;;;13.10;2.20;;;;;;;;;;5039663;28;20043;-69
2022/05/29 12:17:54;;;;;;;12.20;2.75;;;;;;;;;;5061414;28;20075;-68
2022/05/29 12:20:24;;;;;;;13.20;2.45;;;;;;;;;;5063961;28;20481;-69
2022/05/29 12:22:56;;;;;;;15.25;2.88;;;;;;;;;;5053084;28;20039;-70
2022/05/29 12:26:01;;;;;;;13.23;2.25;;;;;;;;;;5054495;28;20802;-69
2022/05/29 12:28:33;;;;;;;12.85;2.40;;;;;;;;;;4969128;28;20042;-70
2022/05/29 12:31:02;;;;;;;14.40;2.72;;;;;;;;;;4974868;28;20158;-69
2022/05/29 12:33:32;;;;;;;13.23;2.63;;;;;;;;;;4972232;28;20034;-69
2022/05/29 12:36:04;;;;;;;13.73;2.95;;;;;;;;;;4977112;28;20403;-70
2022/05/29 12:38:42;;;;;;;17.40;2.75;;;;;;;;;;4974974;28;20038;-70
2022/05/29 12:41:23;;;;;;;14.82;2.85;;;;;;;;;;4966301;28;20044;-70
2022/05/29 12:44:10;;;;;;;12.15;2.60;;;;;;;;;;4970677;28;20618;-70
2022/05/29 12:46:46;;;;;;;13.75;2.60;;;;;;;;;;4972252;28;20042;-70
2022/05/29 12:49:35;;;;;;;10.98;2.65;;;;;;;;;;4972100;28;20026;-70
2022/05/29 12:52:25;;;;;;;12.40;2.45;;;;;;;;;;4977000;28;20042;-71
2022/05/29 12:55:18;;;;;;;13.15;2.80;;;;;;;;;;4974878;28;20330;-71
2022/05/29 12:58:19;;;;;;;15.70;2.45;;;;;;;;;;4958451;28;20386;-70
2022/05/29 13:01:03;;;;;;;13.43;2.75;;;;;;;;;;4941029;28;20038;-71
2022/05/29 13:03:49;;;;;;;13.25;2.97;;;;;;;;;;4974227;28;20406;-71
2022/05/29 13:06:34;;;;;;;10.60;2.40;;;;;;;;;;5060291;28;20036;-70
2022/05/29 13:09:19;;;;;;;15.57;2.65;;;;;;;;;;5062756;28;20028;-71
2022/05/29 13:11:52;;;;;;;10.97;2.00;;;;;;;;;;5059612;28;20123;-70
2022/05/29 13:14:21;;;;;;;9.48;1.88;;;;;;;;;;5040901;28;20055;-72
2022/05/29 13:17:03;;;;;;;11.15;2.75;;;;;;;;;;5064607;28;20016;-72
2022/05/29 13:19:59;;;;;;;11.40;2.33;;;;;;;;;;5039308;28;20055;-71
2022/05/29 13:22:46;;;;;;;14.00;2.40;;;;;;;;;;5059576;28;20053;-72
2022/05/29 13:25:15;;;;;;;10.23;2.28;;;;;;;;;;5040245;28;20549;-72
2022/05/29 13:27:44;;;;;;;12.43;2.53;;;;;;;;;;5036854;28;20108;-72
2022/05/29 13:30:32;;;;;;;15.55;2.72;;;;;;;;;;5046746;28;20040;-72
2022/05/29 13:33:27;;;;;;;14.10;2.83;;;;;;;;;;5067741;28;20127;-73
2022/05/29 13:35:55;;;;;;;8.83;1.90;;;;;;;;;;4969223;28;20448;-70
2022/05/29 13:38:40;;;;;;;12.25;2.30;;;;;;;;;;4955321;28;20038;-71
2022/05/29 13:41:07;;;;;;;11.38;2.20;;;;;;;;;;4984564;28;20507;-70
2022/05/29 13:43:38;;;;;;;17.00;2.55;;;;;;;;;;4962501;28;20688;-70
2022/05/29 13:46:25;;;;;;;10.80;2.13;;;;;;;;;;4961188;28;20845;-70
2022/05/29 13:49:21;;;;;;;8.48;2.00;;;;;;;;;;4965269;28;20488;-70
2022/05/29 13:52:00;;;;;;;10.70;2.40;;;;;;;;;;4959273;28;21026;-71
2022/05/29 13:54:32;;;;;;;12.63;2.53;;;;;;;;;;4958258;28;20939;-71
2022/05/29 13:57:24;;;;;;;12.90;2.67;;;;;;;;;;4961110;28;20042;-71
2022/05/29 14:05:40;;;;;;;11.48;2.03;;;;;;;;;;4966305;28;20057;-71
2022/05/29 14:08:26;;;;;;;11.20;2.03;;;;;;;;;;4968172;28;20401;-71
2022/05/29 14:11:05;;;;;;;11.82;2.08;;;;;;;;;;4968347;28;20026;-71
2022/05/29 14:13:46;;;;;;;11.70;1.80;;;;;;;;;;5018449;28;20049;-70
2022/05/29 14:16:23;;;;;;;10.15;2.20;;;;;;;;;;5026426;28;20517;-70
2022/05/29 14:18:58;;;;;;;8.13;1.70;;;;;;;;;;5035161;28;20037;-70
2022/05/29 14:21:44;;;;;;;10.35;1.88;;;;;;;;;;5032677;28;20432;-70
2022/05/29 14:24:27;;;;;;;11.98;2.20;;;;;;;;;;5035593;28;20024;-66
2022/05/29 14:27:15;;;;;;;10.27;2.30;;;;;;;;;;5043330;28;20040;-69
2022/05/29 14:30:01;;;;;;;12.35;2.10;;;;;;;;;;5059738;28;20020;-69
2022/05/29 14:32:49;;;;;;;10.35;1.95;;;;;;;;;;5022950;28;20043;-67
2022/05/29 14:35:42;;;;;;;11.18;2.03;;;;;;;;;;5049840;28;20487;-67
2022/05/29 14:38:24;;;;;;;10.00;2.03;;;;;;;;;;5052676;28;20040;-66
2022/05/29 14:41:01;;;;;;;10.68;2.03;;;;;;;;;;5042221;28;20070;-67
2022/05/29 14:43:35;;;;;;;12.43;2.17;;;;;;;;;;5061611;28;21096;-67
2022/05/29 14:46:27;;;;;;;8.75;1.90;;;;;;;;;;5057662;28;20027;-67
2022/05/29 14:48:58;;;;;;;11.13;2.22;;;;;;;;;;5069440;28;20292;-66
2022/05/29 14:51:43;;;;;;;10.65;2.20;;;;;;;;;;5045526;28;20170;-68
2022/05/29 14:54:30;;;;;;;8.90;1.70;;;;;;;;;;5066042;28;20020;-65
2022/05/29 14:57:05;;;;;;;10.90;2.00;;;;;;;;;;5056538;28;20489;-69
2022/05/29 14:59:36;;;;;;;12.93;2.08;;;;;;;;;;5062513;28;20841;-68
2022/05/29 15:02:08;;;;;;;12.60;2.30;;;;;;;;;;5066616;28;20093;-68
2022/05/29 15:04:37;;;;;;;9.68;1.95;;;;;;;;;;5068356;28;20087;-68
2022/05/29 15:12:41;;;;;;;11.40;1.88;;;;;;;;;;5022614;28;20075;-66
2022/05/29 15:15:31;;;;;;;13.40;2.00;;;;;;;;;;5005123;28;20037;-67
2022/05/29 15:18:12;;;;;;;10.20;2.00;;;;;;;;;;5018149;28;20535;-67
2022/05/29 15:26:26;;;;;;;9.23;1.90;;;;;;;;;;5001722;28;20108;-70
2022/05/29 15:28:59;;;;;;;7.65;1.70;;;;;;;;;;4989309;28;20179;-70
2022/05/29 15:31:36;;;;;;;10.00;1.98;;;;;;;;;;5003283;28;20547;-70
2022/05/29 15:34:20;;;;;;;7.07;1.42;;;;;;;;;;5000359;28;20029;-72
2022/05/29 15:37:08;;;;;;;8.50;1.85;;;;;;;;;;5002605;28;20256;-70
2022/05/29 15:39:41;;;;;;;9.48;1.90;;;;;;;;;;4994762;28;20491;-68
2022/05/29 15:42:28;;;;;;;10.43;1.85;;;;;;;;;;4997121;28;20036;-68
2022/05/29 15:45:16;;;;;;;11.18;1.83;;;;;;;;;;4996979;28;20059;-68
2022/05/29 15:48:09;;;;;;;11.32;2.33;;;;;;;;;;4992945;28;20349;-68
2022/05/29 15:51:06;;;;;;;11.02;2.10;;;;;;;;;;4977354;28;20038;-69
2022/05/29 15:53:53;;;;;;;9.20;1.90;;;;;;;;;;4916790;28;20049;-68
2022/05/29 15:56:37;;;;;;;10.57;1.83;;;;;;;;;;4919702;28;20031;-71
2022/05/29 15:59:13;;;;;;;10.10;2.08;;;;;;;;;;4959093;28;20077;-68
2022/05/29 16:01:59;;;;;;;9.65;1.63;;;;;;;;;;4957516;28;20060;-68
2022/05/29 16:04:37;;;;;;;10.88;2.00;;;;;;;;;;4954411;28;20092;-69
2022/05/29 16:07:07;;;;;;;9.90;2.00;;;;;;;;;;4957324;28;20046;-69
2022/05/29 16:10:09;;;;;;;8.10;1.58;;;;;;;;;;4944184;28;20683;-68
2022/05/29 16:12:48;;;;;;;9.38;1.92;;;;;;;;;;4918971;28;20038;-70
2022/05/29 16:15:38;;;;;;;9.63;1.70;;;;;;;;;;4925436;28;20036;-69
2022/05/29 16:18:26;;;;;;;8.85;1.85;;;;;;;;;;4911745;28;20034;-70